sensor_id;sensor_type;location;lat;lon;timestamp;pressure;altitude;pressure_sealevel;temperature;humidity
74895;BME280;63447;49.446;8.666;2023-09-19T00:00:42;99917.59;;;17.21;88.23
74895;BME280;63447;49.446;8.666;2023-09-19T00:03:09;99923.16;;;17.18;89.25
74895;BME280;63447;49.446;8.666;2023-09-19T00:05:36;99918.06;;;17.27;88.55
74895;BME280;63447;49.446;8.666;2023-09-19T00:08:02;99919.69;;;17.32;87.83
74895;BME280;63447;49.446;8.666;2023-09-19T00:10:33;99919.97;;;17.16;88.83
74895;BME280;63447;49.446;8.666;2023-09-19T00:13:03;99917.16;;;17.12;89.26
74895;BME280;63447;49.446;8.666;2023-09-19T00:15:43;99930.31;;;17.12;89.54
74895;BME280;63447;49.446;8.666;2023-09-19T00:18:13;99929.09;;;17.09;89.69
74895;BME280;63447;49.446;8.666;2023-09-19T00:20:40;99929.53;;;17.15;90.11
74895;BME280;63447;49.446;8.666;2023-09-19T00:23:12;99935.91;;;17.19;89.61
74895;BME280;63447;49.446;8.666;2023-09-19T00:25:39;99928.28;;;17.09;90.08
74895;BME280;63447;49.446;8.666;2023-09-19T00:28:09;99932.72;;;17.17;90.19
74895;BME280;63447;49.446;8.666;2023-09-19T00:30:34;99914.00;;;17.14;89.37
74895;BME280;63447;49.446;8.666;2023-09-19T00:33:04;99935.88;;;17.15;89.83
74895;BME280;63447;49.446;8.666;2023-09-19T00:35:35;99943.34;;;17.01;91.36
74895;BME280;63447;49.446;8.666;2023-09-19T00:38:01;99939.00;;;17.03;91.10
74895;BME280;63447;49.446;8.666;2023-09-19T00:40:28;99943.81;;;17.10;91.46
74895;BME280;63447;49.446;8.666;2023-09-19T00:42:57;99943.38;;;17.04;91.52
74895;BME280;63447;49.446;8.666;2023-09-19T00:45:25;99944.22;;;17.08;91.68
74895;BME280;63447;49.446;8.666;2023-09-19T00:47:51;99944.19;;;17.05;91.92
74895;BME280;63447;49.446;8.666;2023-09-19T00:50:22;99946.22;;;17.11;91.93
74895;BME280;63447;49.446;8.666;2023-09-19T00:52:48;99951.03;;;17.18;91.89
74895;BME280;63447;49.446;8.666;2023-09-19T00:55:19;99955.78;;;17.10;91.44
74895;BME280;63447;49.446;8.666;2023-09-19T00:57:47;99960.97;;;17.12;92.70
74895;BME280;63447;49.446;8.666;2023-09-19T01:00:17;99967.72;;;17.11;91.99
74895;BME280;63447;49.446;8.666;2023-09-19T01:02:47;99968.44;;;17.01;92.87
74895;BME280;63447;49.446;8.666;2023-09-19T01:05:13;99974.00;;;17.01;93.75
74895;BME280;63447;49.446;8.666;2023-09-19T01:07:38;99980.69;;;16.92;93.99
74895;BME280;63447;49.446;8.666;2023-09-19T01:10:08;99979.56;;;17.01;93.05
74895;BME280;63447;49.446;8.666;2023-09-19T01:23:23;99975.50;;;16.87;94.50
74895;BME280;63447;49.446;8.666;2023-09-19T01:26:05;99979.50;;;16.93;95.06
74895;BME280;63447;49.446;8.666;2023-09-19T01:31:29;99977.56;;;16.98;94.88
74895;BME280;63447;49.446;8.666;2023-09-19T01:34:00;99981.91;;;16.95;95.07
74895;BME280;63447;49.446;8.666;2023-09-19T01:36:38;99969.13;;;16.87;95.51
74895;BME280;63447;49.446;8.666;2023-09-19T01:39:10;99969.47;;;16.82;95.84
74895;BME280;63447;49.446;8.666;2023-09-19T01:44:40;99980.31;;;16.94;95.74
74895;BME280;63447;49.446;8.666;2023-09-19T01:49:55;99977.44;;;16.83;96.01
74895;BME280;63447;49.446;8.666;2023-09-19T01:52:30;99985.41;;;16.85;96.27
74895;BME280;63447;49.446;8.666;2023-09-19T01:55:05;99983.84;;;16.91;96.06
74895;BME280;63447;49.446;8.666;2023-09-19T01:57:41;99991.91;;;17.00;95.10
74895;BME280;63447;49.446;8.666;2023-09-19T02:00:10;99999.50;;;17.03;95.45
74895;BME280;63447;49.446;8.666;2023-09-19T02:02:42;99993.50;;;17.01;95.48
74895;BME280;63447;49.446;8.666;2023-09-19T02:05:09;100002.59;;;16.94;95.55
74895;BME280;63447;49.446;8.666;2023-09-19T02:07:35;100001.91;;;17.04;95.20
74895;BME280;63447;49.446;8.666;2023-09-19T02:10:04;99996.22;;;16.93;95.90
74895;BME280;63447;49.446;8.666;2023-09-19T02:12:35;100000.19;;;16.92;96.39
74895;BME280;63447;49.446;8.666;2023-09-19T02:15:00;100002.00;;;17.11;94.85
74895;BME280;63447;49.446;8.666;2023-09-19T02:17:28;100011.72;;;16.91;95.79
74895;BME280;63447;49.446;8.666;2023-09-19T02:19:56;100003.75;;;16.86;96.89
74895;BME280;63447;49.446;8.666;2023-09-19T02:22:22;100004.53;;;16.86;95.72
74895;BME280;63447;49.446;8.666;2023-09-19T02:24:48;100007.50;;;17.04;95.39
74895;BME280;63447;49.446;8.666;2023-09-19T02:27:13;100013.41;;;16.99;95.53
74895;BME280;63447;49.446;8.666;2023-09-19T02:29:41;100016.56;;;16.98;95.55
74895;BME280;63447;49.446;8.666;2023-09-19T02:32:06;100021.81;;;17.03;95.24
74895;BME280;63447;49.446;8.666;2023-09-19T02:34:32;100019.28;;;16.90;96.44
74895;BME280;63447;49.446;8.666;2023-09-19T02:37:00;100020.16;;;16.98;95.30
74895;BME280;63447;49.446;8.666;2023-09-19T02:39:30;100028.50;;;16.94;95.84
74895;BME280;63447;49.446;8.666;2023-09-19T02:41:58;100028.56;;;17.02;95.34
74895;BME280;63447;49.446;8.666;2023-09-19T02:44:26;100033.72;;;17.00;95.26
74895;BME280;63447;49.446;8.666;2023-09-19T02:46:54;100033.59;;;16.85;96.05
74895;BME280;63447;49.446;8.666;2023-09-19T02:49:20;100045.91;;;16.84;96.10
74895;BME280;63447;49.446;8.666;2023-09-19T02:51:47;100030.69;;;16.75;97.20
74895;BME280;63447;49.446;8.666;2023-09-19T02:54:13;100037.59;;;16.88;96.81
74895;BME280;63447;49.446;8.666;2023-09-19T02:56:38;100043.25;;;16.99;95.45
74895;BME280;63447;49.446;8.666;2023-09-19T02:59:06;100055.94;;;16.92;96.19
74895;BME280;63447;49.446;8.666;2023-09-19T03:01:32;100053.66;;;17.02;94.97
74895;BME280;63447;49.446;8.666;2023-09-19T03:03:58;100044.00;;;16.92;96.50
74895;BME280;63447;49.446;8.666;2023-09-19T03:06:24;100052.78;;;16.94;95.68
74895;BME280;63447;49.446;8.666;2023-09-19T03:08:49;100050.03;;;16.98;96.60
74895;BME280;63447;49.446;8.666;2023-09-19T03:11:16;100066.03;;;17.04;95.25
74895;BME280;63447;49.446;8.666;2023-09-19T03:13:54;100054.03;;;17.00;95.12
74895;BME280;63447;49.446;8.666;2023-09-19T03:16:19;100050.81;;;16.98;95.28
74895;BME280;63447;49.446;8.666;2023-09-19T03:18:47;100051.66;;;17.02;95.15
74895;BME280;63447;49.446;8.666;2023-09-19T03:21:16;100056.41;;;16.98;95.22
74895;BME280;63447;49.446;8.666;2023-09-19T03:23:42;100064.75;;;16.98;95.27
74895;BME280;63447;49.446;8.666;2023-09-19T03:26:11;100069.44;;;16.90;96.50
74895;BME280;63447;49.446;8.666;2023-09-19T03:28:37;100069.44;;;16.90;96.68
74895;BME280;63447;49.446;8.666;2023-09-19T03:31:06;100070.69;;;16.93;96.17
74895;BME280;63447;49.446;8.666;2023-09-19T03:33:34;100063.06;;;16.86;96.29
74895;BME280;63447;49.446;8.666;2023-09-19T03:36:02;100067.84;;;16.89;95.47
74895;BME280;63447;49.446;8.666;2023-09-19T03:38:32;100069.44;;;16.87;95.91
74895;BME280;63447;49.446;8.666;2023-09-19T03:40:59;100080.16;;;16.85;96.16
74895;BME280;63447;49.446;8.666;2023-09-19T03:43:24;100069.66;;;16.71;96.48
74895;BME280;63447;49.446;8.666;2023-09-19T03:45:50;100083.63;;;16.75;96.66
74895;BME280;63447;49.446;8.666;2023-09-19T03:48:16;100077.16;;;16.67;96.70
74895;BME280;63447;49.446;8.666;2023-09-19T03:50:41;100073.94;;;16.65;96.23
74895;BME280;63447;49.446;8.666;2023-09-19T03:53:09;100077.09;;;16.63;96.86
74895;BME280;63447;49.446;8.666;2023-09-19T03:55:34;100081.06;;;16.62;96.63
74895;BME280;63447;49.446;8.666;2023-09-19T03:58:04;100087.03;;;16.61;97.55
74895;BME280;63447;49.446;8.666;2023-09-19T04:00:31;100085.31;;;16.53;97.78
74895;BME280;63447;49.446;8.666;2023-09-19T04:02:57;100076.91;;;16.49;97.46
74895;BME280;63447;49.446;8.666;2023-09-19T04:05:23;100072.84;;;16.43;98.15
74895;BME280;63447;49.446;8.666;2023-09-19T04:07:48;100078.44;;;16.43;98.15
74895;BME280;63447;49.446;8.666;2023-09-19T04:10:15;100067.22;;;16.36;98.08
74895;BME280;63447;49.446;8.666;2023-09-19T04:12:40;100095.50;;;16.42;96.21
74895;BME280;63447;49.446;8.666;2023-09-19T04:15:06;100091.44;;;16.32;96.31
74895;BME280;63447;49.446;8.666;2023-09-19T04:17:32;100092.44;;;16.20;96.83
74895;BME280;63447;49.446;8.666;2023-09-19T04:20:00;100101.38;;;16.33;96.12
74895;BME280;63447;49.446;8.666;2023-09-19T04:22:29;100091.69;;;16.23;94.90
74895;BME280;63447;49.446;8.666;2023-09-19T04:24:55;100094.47;;;16.23;93.14
74895;BME280;63447;49.446;8.666;2023-09-19T04:27:20;100100.44;;;16.22;90.57
74895;BME280;63447;49.446;8.666;2023-09-19T04:29:48;100090.56;;;16.28;89.26
74895;BME280;63447;49.446;8.666;2023-09-19T04:32:18;100082.13;;;16.21;87.43
74895;BME280;63447;49.446;8.666;2023-09-19T04:34:43;100102.94;;;16.31;87.35
74895;BME280;63447;49.446;8.666;2023-09-19T04:37:11;100113.22;;;16.26;87.46
74895;BME280;63447;49.446;8.666;2023-09-19T04:39:38;100120.06;;;16.33;87.06
74895;BME280;63447;49.446;8.666;2023-09-19T04:42:04;100121.31;;;16.35;86.59
74895;BME280;63447;49.446;8.666;2023-09-19T04:44:34;100128.38;;;16.29;86.94
74895;BME280;63447;49.446;8.666;2023-09-19T04:46:59;100120.03;;;16.29;87.54
74895;BME280;63447;49.446;8.666;2023-09-19T04:49:29;100114.28;;;16.18;87.01
74895;BME280;63447;49.446;8.666;2023-09-19T04:51:55;100131.09;;;16.25;87.51
74895;BME280;63447;49.446;8.666;2023-09-19T04:54:22;100114.22;;;16.15;87.54
74895;BME280;63447;49.446;8.666;2023-09-19T04:56:48;100127.13;;;16.26;87.32
74895;BME280;63447;49.446;8.666;2023-09-19T04:59:13;100121.53;;;16.23;86.68
74895;BME280;63447;49.446;8.666;2023-09-19T05:01:40;100133.94;;;16.29;86.19
74895;BME280;63447;49.446;8.666;2023-09-19T05:04:07;100131.59;;;16.31;85.60
74895;BME280;63447;49.446;8.666;2023-09-19T05:06:33;100119.06;;;16.18;86.17
74895;BME280;63447;49.446;8.666;2023-09-19T05:09:01;100136.41;;;16.34;86.65
74895;BME280;63447;49.446;8.666;2023-09-19T05:11:26;100139.63;;;16.36;86.52
74895;BME280;63447;49.446;8.666;2023-09-19T05:13:52;100140.13;;;16.45;86.92
74895;BME280;63447;49.446;8.666;2023-09-19T05:16:20;100144.19;;;16.51;86.88
74895;BME280;63447;49.446;8.666;2023-09-19T05:18:45;100150.94;;;16.50;87.07
74895;BME280;63447;49.446;8.666;2023-09-19T05:21:13;100155.44;;;16.58;87.16
74895;BME280;63447;49.446;8.666;2023-09-19T05:23:38;100160.03;;;16.74;87.20
74895;BME280;63447;49.446;8.666;2023-09-19T05:26:03;100162.53;;;16.82;86.50
74895;BME280;63447;49.446;8.666;2023-09-19T05:28:30;100162.91;;;16.81;85.35
74895;BME280;63447;49.446;8.666;2023-09-19T05:31:02;100169.28;;;16.81;85.86
74895;BME280;63447;49.446;8.666;2023-09-19T05:33:30;100167.78;;;16.91;85.85
74895;BME280;63447;49.446;8.666;2023-09-19T05:35:58;100175.88;;;17.00;84.63
74895;BME280;63447;49.446;8.666;2023-09-19T05:38:23;100172.38;;;17.06;84.29
74895;BME280;63447;49.446;8.666;2023-09-19T05:40:49;100170.78;;;17.05;83.40
74895;BME280;63447;49.446;8.666;2023-09-19T05:43:17;100179.59;;;17.11;83.97
74895;BME280;63447;49.446;8.666;2023-09-19T05:45:43;100176.78;;;17.07;83.58
74895;BME280;63447;49.446;8.666;2023-09-19T05:48:11;100182.03;;;17.16;83.63
74895;BME280;63447;49.446;8.666;2023-09-19T05:50:38;100176.44;;;17.12;82.83
74895;BME280;63447;49.446;8.666;2023-09-19T05:53:07;100186.03;;;17.15;83.17
74895;BME280;63447;49.446;8.666;2023-09-19T05:55:37;100184.09;;;17.22;82.85
74895;BME280;63447;49.446;8.666;2023-09-19T05:58:05;100181.69;;;17.21;83.03
74895;BME280;63447;49.446;8.666;2023-09-19T06:00:30;100178.84;;;17.17;81.82
74895;BME280;63447;49.446;8.666;2023-09-19T06:02:58;100180.41;;;17.11;82.50
74895;BME280;63447;49.446;8.666;2023-09-19T06:05:27;100174.22;;;16.95;82.95
74895;BME280;63447;49.446;8.666;2023-09-19T06:07:55;100190.56;;;16.96;83.38
74895;BME280;63447;49.446;8.666;2023-09-19T06:10:20;100190.47;;;16.89;83.80
74895;BME280;63447;49.446;8.666;2023-09-19T06:12:46;100196.50;;;16.95;84.27
74895;BME280;63447;49.446;8.666;2023-09-19T06:15:13;100203.09;;;17.10;83.28
74895;BME280;63447;49.446;8.666;2023-09-19T06:17:51;100205.81;;;17.06;83.86
74895;BME280;63447;49.446;8.666;2023-09-19T06:20:20;100213.50;;;17.16;84.09
74895;BME280;63447;49.446;8.666;2023-09-19T06:22:48;100213.22;;;17.25;82.62
74895;BME280;63447;49.446;8.666;2023-09-19T06:25:17;100214.84;;;17.29;82.00
74895;BME280;63447;49.446;8.666;2023-09-19T06:27:52;100228.34;;;17.24;82.36
74895;BME280;63447;49.446;8.666;2023-09-19T06:30:19;100233.41;;;17.15;83.42
74895;BME280;63447;49.446;8.666;2023-09-19T06:32:48;100222.19;;;17.08;84.88
74895;BME280;63447;49.446;8.666;2023-09-19T06:35:14;100232.81;;;17.32;83.16
74895;BME280;63447;49.446;8.666;2023-09-19T06:37:43;100241.06;;;17.21;82.25
74895;BME280;63447;49.446;8.666;2023-09-19T06:42:43;100230.66;;;17.18;80.16
74895;BME280;63447;49.446;8.666;2023-09-19T06:45:13;100224.88;;;17.01;80.43
74895;BME280;63447;49.446;8.666;2023-09-19T06:47:43;100233.97;;;16.98;81.09
74895;BME280;63447;49.446;8.666;2023-09-19T06:50:08;100239.94;;;16.96;81.54
74895;BME280;63447;49.446;8.666;2023-09-19T06:52:39;100232.03;;;17.02;81.05
74895;BME280;63447;49.446;8.666;2023-09-19T06:55:05;100238.69;;;17.23;80.02
74895;BME280;63447;49.446;8.666;2023-09-19T06:57:31;100238.34;;;17.28;79.44
74895;BME280;63447;49.446;8.666;2023-09-19T06:59:57;100243.59;;;17.34;79.16
74895;BME280;63447;49.446;8.666;2023-09-19T07:02:22;100250.78;;;17.35;79.07
74895;BME280;63447;49.446;8.666;2023-09-19T07:04:53;100237.56;;;17.28;80.05
74895;BME280;63447;49.446;8.666;2023-09-19T07:07:20;100261.25;;;17.45;78.13
74895;BME280;63447;49.446;8.666;2023-09-19T07:09:46;100242.31;;;17.27;79.09
74895;BME280;63447;49.446;8.666;2023-09-19T07:12:13;100257.28;;;17.46;77.62
74895;BME280;63447;49.446;8.666;2023-09-19T07:14:39;100266.78;;;17.41;77.08
74895;BME280;63447;49.446;8.666;2023-09-19T07:17:07;100265.22;;;17.44;78.50
74895;BME280;63447;49.446;8.666;2023-09-19T07:19:32;100263.75;;;17.53;77.24
74895;BME280;63447;49.446;8.666;2023-09-19T07:21:58;100263.06;;;17.63;76.66
74895;BME280;63447;49.446;8.666;2023-09-19T07:24:24;100273.16;;;17.75;74.45
74895;BME280;63447;49.446;8.666;2023-09-19T07:26:53;100266.75;;;17.71;74.49
74895;BME280;63447;49.446;8.666;2023-09-19T07:29:19;100285.47;;;17.71;74.83
74895;BME280;63447;49.446;8.666;2023-09-19T07:31:46;100282.97;;;17.99;74.05
74895;BME280;63447;49.446;8.666;2023-09-19T07:34:15;100281.13;;;18.14;73.27
74895;BME280;63447;49.446;8.666;2023-09-19T07:36:40;100288.41;;;18.25;72.41
74895;BME280;63447;49.446;8.666;2023-09-19T07:39:08;100282.53;;;17.93;71.70
74895;BME280;63447;49.446;8.666;2023-09-19T07:41:34;100303.03;;;18.08;72.39
74895;BME280;63447;49.446;8.666;2023-09-19T07:43:59;100294.69;;;18.12;72.40
74895;BME280;63447;49.446;8.666;2023-09-19T07:46:25;100295.44;;;18.09;70.64
74895;BME280;63447;49.446;8.666;2023-09-19T07:48:51;100303.16;;;18.26;70.30
74895;BME280;63447;49.446;8.666;2023-09-19T07:51:17;100294.09;;;18.36;70.28
74895;BME280;63447;49.446;8.666;2023-09-19T07:53:45;100294.16;;;18.47;70.35
74895;BME280;63447;49.446;8.666;2023-09-19T07:56:10;100309.31;;;18.46;69.96
74895;BME280;63447;49.446;8.666;2023-09-19T07:58:39;100306.13;;;18.47;68.35
74895;BME280;63447;49.446;8.666;2023-09-19T08:01:07;100306.09;;;18.40;68.58
74895;BME280;63447;49.446;8.666;2023-09-19T08:03:33;100308.69;;;18.59;69.00
74895;BME280;63447;49.446;8.666;2023-09-19T08:06:00;100316.34;;;18.70;69.18
74895;BME280;63447;49.446;8.666;2023-09-19T08:08:26;100305.22;;;18.80;68.51
74895;BME280;63447;49.446;8.666;2023-09-19T08:10:53;100322.38;;;18.79;66.57
74895;BME280;63447;49.446;8.666;2023-09-19T08:13:24;100319.91;;;18.67;66.78
74895;BME280;63447;49.446;8.666;2023-09-19T08:15:50;100331.13;;;18.74;68.49
74895;BME280;63447;49.446;8.666;2023-09-19T08:18:18;100331.94;;;18.74;66.35
74895;BME280;63447;49.446;8.666;2023-09-19T08:20:49;100331.63;;;18.86;65.05
74895;BME280;63447;49.446;8.666;2023-09-19T08:23:15;100333.16;;;18.77;64.51
74895;BME280;63447;49.446;8.666;2023-09-19T08:25:43;100336.72;;;18.70;65.15
74895;BME280;63447;49.446;8.666;2023-09-19T08:28:10;100329.16;;;18.78;63.99
74895;BME280;63447;49.446;8.666;2023-09-19T08:30:43;100333.59;;;18.82;63.50
74895;BME280;63447;49.446;8.666;2023-09-19T08:33:08;100349.66;;;18.92;63.81
74895;BME280;63447;49.446;8.666;2023-09-19T08:35:36;100352.91;;;19.05;62.23
74895;BME280;63447;49.446;8.666;2023-09-19T08:38:06;100352.84;;;18.98;62.55
74895;BME280;63447;49.446;8.666;2023-09-19T08:40:32;100352.81;;;18.87;62.29
74895;BME280;63447;49.446;8.666;2023-09-19T08:43:00;100357.22;;;18.88;62.43
74895;BME280;63447;49.446;8.666;2023-09-19T08:45:26;100357.59;;;18.87;61.86
74895;BME280;63447;49.446;8.666;2023-09-19T08:48:17;100364.22;;;18.64;62.52
74895;BME280;63447;49.446;8.666;2023-09-19T08:50:52;100362.28;;;18.76;63.25
74895;BME280;63447;49.446;8.666;2023-09-19T08:53:31;100362.28;;;18.76;63.41
74895;BME280;63447;49.446;8.666;2023-09-19T08:55:59;100365.91;;;18.80;62.80
74895;BME280;63447;49.446;8.666;2023-09-19T08:58:34;100352.81;;;18.87;61.19
74895;BME280;63447;49.446;8.666;2023-09-19T09:01:01;100347.94;;;18.77;61.06
74895;BME280;63447;49.446;8.666;2023-09-19T09:03:32;100361.47;;;18.72;60.67
74895;BME280;63447;49.446;8.666;2023-09-19T09:05:57;100352.84;;;18.91;60.15
74895;BME280;63447;49.446;8.666;2023-09-19T09:08:26;100360.09;;;19.03;59.35
74895;BME280;63447;49.446;8.666;2023-09-19T09:10:53;100355.75;;;19.09;60.78
74895;BME280;63447;49.446;8.666;2023-09-19T09:13:18;100355.66;;;18.98;59.97
74895;BME280;63447;49.446;8.666;2023-09-19T09:15:46;100358.94;;;19.11;60.65
74895;BME280;63447;49.446;8.666;2023-09-19T09:18:12;100365.06;;;19.34;60.70
74895;BME280;63447;49.446;8.666;2023-09-19T09:20:39;100349.59;;;19.54;59.65
74895;BME280;63447;49.446;8.666;2023-09-19T09:23:08;100348.44;;;19.62;60.37
74895;BME280;63447;49.446;8.666;2023-09-19T09:25:53;100355.66;;;19.63;59.58
74895;BME280;63447;49.446;8.666;2023-09-19T09:28:29;100354.88;;;19.67;58.92
74895;BME280;63447;49.446;8.666;2023-09-19T09:30:56;100361.25;;;19.63;58.97
74895;BME280;63447;49.446;8.666;2023-09-19T09:33:23;100352.47;;;19.65;58.60
74895;BME280;63447;49.446;8.666;2023-09-19T09:38:27;100363.31;;;19.81;57.73
74895;BME280;63447;49.446;8.666;2023-09-19T09:40:57;100357.38;;;20.04;57.51
74895;BME280;63447;49.446;8.666;2023-09-19T09:43:36;100353.38;;;20.05;55.47
74895;BME280;63447;49.446;8.666;2023-09-19T09:46:14;100363.00;;;20.07;55.10
74895;BME280;63447;49.446;8.666;2023-09-19T09:48:47;100361.03;;;20.29;55.42
74895;BME280;63447;49.446;8.666;2023-09-19T09:51:35;100363.00;;;20.07;56.18
74895;BME280;63447;49.446;8.666;2023-09-19T09:54:16;100351.28;;;19.66;56.33
74895;BME280;63447;49.446;8.666;2023-09-19T09:56:59;100352.56;;;19.93;56.42
74895;BME280;63447;49.446;8.666;2023-09-19T09:59:44;100383.81;;;20.10;55.67
74895;BME280;63447;49.446;8.666;2023-09-19T10:02:58;100364.63;;;20.19;56.30
74895;BME280;63447;49.446;8.666;2023-09-19T10:05:16;100360.97;;;19.93;54.90
74895;BME280;63447;49.446;8.666;2023-09-19T10:07:54;100353.78;;;19.96;55.60
74895;BME280;63447;49.446;8.666;2023-09-19T10:10:37;100353.81;;;20.14;55.75
74895;BME280;63447;49.446;8.666;2023-09-19T10:13:25;100345.47;;;20.71;54.89
74895;BME280;63447;49.446;8.666;2023-09-19T10:15:54;100347.41;;;21.06;51.93
74895;BME280;63447;49.446;8.666;2023-09-19T10:18:21;100356.25;;;20.90;50.56
74895;BME280;63447;49.446;8.666;2023-09-19T10:20:47;100341.44;;;20.96;50.16
74895;BME280;63447;49.446;8.666;2023-09-19T10:23:15;100357.47;;;20.99;49.82
74895;BME280;63447;49.446;8.666;2023-09-19T10:25:47;100351.75;;;21.46;49.48
74895;BME280;63447;49.446;8.666;2023-09-19T10:28:15;100349.81;;;21.28;48.17
74895;BME280;63447;49.446;8.666;2023-09-19T10:30:42;100330.53;;;21.34;47.96
74895;BME280;63447;49.446;8.666;2023-09-19T10:33:11;100347.75;;;21.43;48.66
74895;BME280;63447;49.446;8.666;2023-09-19T10:35:39;100345.66;;;21.68;48.46
74895;BME280;63447;49.446;8.666;2023-09-19T10:38:10;100335.72;;;21.50;46.86
74895;BME280;63447;49.446;8.666;2023-09-19T10:40:36;100329.22;;;21.60;47.10
74895;BME280;63447;49.446;8.666;2023-09-19T10:43:11;100326.75;;;21.80;47.95
74895;BME280;63447;49.446;8.666;2023-09-19T10:45:38;100331.59;;;22.38;46.54
74895;BME280;63447;49.446;8.666;2023-09-19T10:48:05;100333.59;;;21.72;46.58
74895;BME280;63447;49.446;8.666;2023-09-19T10:50:45;100336.44;;;21.68;46.95
74895;BME280;63447;49.446;8.666;2023-09-19T10:53:15;100332.31;;;21.83;46.95
74895;BME280;63447;49.446;8.666;2023-09-19T10:55:49;100336.56;;;22.16;46.24
74895;BME280;63447;49.446;8.666;2023-09-19T10:58:27;100344.16;;;21.36;47.39
74895;BME280;63447;49.446;8.666;2023-09-19T11:00:55;100345.38;;;21.34;47.75
74895;BME280;63447;49.446;8.666;2023-09-19T11:03:22;100340.13;;;21.44;46.72
74895;BME280;63447;49.446;8.666;2023-09-19T11:06:18;100331.72;;;21.37;47.30
74895;BME280;63447;49.446;8.666;2023-09-19T11:09:01;100332.81;;;21.64;47.48
74895;BME280;63447;49.446;8.666;2023-09-19T11:20:15;100328.66;;;21.93;45.40
74895;BME280;63447;49.446;8.666;2023-09-19T11:30:51;100294.31;;;22.30;44.43
74895;BME280;63447;49.446;8.666;2023-09-19T11:33:25;100305.50;;;22.38;44.74
74895;BME280;63447;49.446;8.666;2023-09-19T11:36:11;100314.19;;;22.57;43.84
74895;BME280;63447;49.446;8.666;2023-09-19T11:41:40;100304.78;;;22.75;44.04
74895;BME280;63447;49.446;8.666;2023-09-19T11:46:51;100302.22;;;22.46;44.36
74895;BME280;63447;49.446;8.666;2023-09-19T11:49:19;100293.28;;;22.58;44.42
74895;BME280;63447;49.446;8.666;2023-09-19T11:51:50;100299.56;;;22.73;44.03
74895;BME280;63447;49.446;8.666;2023-09-19T11:54:20;100303.91;;;22.85;42.95
74895;BME280;63447;49.446;8.666;2023-09-19T11:56:54;100293.88;;;22.35;44.61
74895;BME280;63447;49.446;8.666;2023-09-19T11:59:30;100285.59;;;22.14;44.58
74895;BME280;63447;49.446;8.666;2023-09-19T12:02:07;100291.00;;;22.43;43.82
74895;BME280;63447;49.446;8.666;2023-09-19T12:04:44;100294.22;;;23.23;43.35
74895;BME280;63447;49.446;8.666;2023-09-19T12:07:17;100289.06;;;23.18;42.07
74895;BME280;63447;49.446;8.666;2023-09-19T12:09:45;100283.22;;;23.02;42.54
74895;BME280;63447;49.446;8.666;2023-09-19T12:12:25;100279.56;;;23.05;42.70
74895;BME280;63447;49.446;8.666;2023-09-19T12:14:56;100275.81;;;23.15;42.96
74895;BME280;63447;49.446;8.666;2023-09-19T12:17:47;100270.84;;;23.64;41.52
74895;BME280;63447;49.446;8.666;2023-09-19T12:20:15;100274.75;;;23.70;40.94
74895;BME280;63447;49.446;8.666;2023-09-19T12:22:42;100283.25;;;24.20;39.70
74895;BME280;63447;49.446;8.666;2023-09-19T12:25:12;100272.16;;;24.10;39.67
74895;BME280;63447;49.446;8.666;2023-09-19T12:27:48;100282.28;;;24.34;39.49
74895;BME280;63447;49.446;8.666;2023-09-19T12:30:15;100269.13;;;24.47;37.93
74895;BME280;63447;49.446;8.666;2023-09-19T12:32:43;100253.47;;;24.89;36.73
74895;BME280;63447;49.446;8.666;2023-09-19T12:35:26;100262.88;;;24.83;36.72
74895;BME280;63447;49.446;8.666;2023-09-19T12:37:53;100258.38;;;24.85;36.82
74895;BME280;63447;49.446;8.666;2023-09-19T12:40:21;100257.53;;;25.48;36.50
74895;BME280;63447;49.446;8.666;2023-09-19T12:42:53;100250.81;;;25.22;38.04
74895;BME280;63447;49.446;8.666;2023-09-19T12:45:23;100253.47;;;26.21;35.99
74895;BME280;63447;49.446;8.666;2023-09-19T12:48:17;100241.50;;;26.29;34.69
74895;BME280;63447;49.446;8.666;2023-09-19T12:53:45;100245.53;;;26.48;33.06
74895;BME280;63447;49.446;8.666;2023-09-19T12:56:16;100249.09;;;26.65;33.27
74895;BME280;63447;49.446;8.666;2023-09-19T12:58:58;100234.19;;;27.35;32.32
74895;BME280;63447;49.446;8.666;2023-09-19T13:01:26;100228.03;;;28.29;31.93
74895;BME280;63447;49.446;8.666;2023-09-19T13:04:17;100248.75;;;27.50;33.23
74895;BME280;63447;49.446;8.666;2023-09-19T13:06:50;100236.13;;;27.25;32.76
74895;BME280;63447;49.446;8.666;2023-09-19T13:09:19;100223.41;;;28.22;31.86
74895;BME280;63447;49.446;8.666;2023-09-19T13:11:45;100235.53;;;29.26;30.50
74895;BME280;63447;49.446;8.666;2023-09-19T13:17:10;100230.47;;;30.23;29.53
74895;BME280;63447;49.446;8.666;2023-09-19T13:25:04;100228.50;;;29.62;29.00
74895;BME280;63447;49.446;8.666;2023-09-19T13:27:32;100213.75;;;29.11;29.35
74895;BME280;63447;49.446;8.666;2023-09-19T13:29:58;100220.25;;;29.95;29.31
74895;BME280;63447;49.446;8.666;2023-09-19T13:32:28;100217.41;;;29.55;28.96
74895;BME280;63447;49.446;8.666;2023-09-19T13:34:53;100204.38;;;30.25;28.42
74895;BME280;63447;49.446;8.666;2023-09-19T13:37:25;100216.13;;;29.56;28.85
74895;BME280;63447;49.446;8.666;2023-09-19T13:39:51;100230.22;;;28.59;29.88
74895;BME280;63447;49.446;8.666;2023-09-19T13:42:17;100204.00;;;28.21;31.01
74895;BME280;63447;49.446;8.666;2023-09-19T13:44:47;100206.31;;;28.48;31.27
74895;BME280;63447;49.446;8.666;2023-09-19T13:47:12;100215.09;;;28.15;32.33
74895;BME280;63447;49.446;8.666;2023-09-19T13:49:41;100211.66;;;28.46;31.26
74895;BME280;63447;49.446;8.666;2023-09-19T13:52:08;100203.88;;;27.99;31.71
74895;BME280;63447;49.446;8.666;2023-09-19T13:54:38;100201.38;;;26.96;34.15
74895;BME280;63447;49.446;8.666;2023-09-19T13:57:03;100198.66;;;27.97;32.84
74895;BME280;63447;49.446;8.666;2023-09-19T13:59:32;100205.38;;;28.85;30.25